createdAt,value
2018-09-11T00:00:01.751Z,79.90
2018-09-11T00:05:04.804Z,80.50
2018-09-11T00:10:07.840Z,80.70
2018-09-11T00:15:10.868Z,80.60
2018-09-11T00:20:13.888Z,80.80
2018-09-11T00:25:16.932Z,81.30
2018-09-11T00:30:19.951Z,81.50
2018-09-11T00:35:24.032Z,81.30
2018-09-11T00:40:27.040Z,81.60
2018-09-11T00:45:30.167Z,81.50
2018-09-11T00:50:33.171Z,81.10
2018-09-11T00:55:36.153Z,81.70
2018-09-11T01:00:39.179Z,81.60
2018-09-11T01:05:42.281Z,81.70
2018-09-11T01:10:45.568Z,82.20
2018-09-11T01:15:48.599Z,82.20
2018-09-11T01:20:51.923Z,82.20
2018-09-11T01:25:55.015Z,82.30
2018-09-11T01:30:58.151Z,82.60
2018-09-11T01:36:01.319Z,82.80
2018-09-11T01:41:04.496Z,84.10
2018-09-11T01:46:07.711Z,84.10
2018-09-11T01:51:10.735Z,84.20
2018-09-11T01:56:13.786Z,84.90
2018-09-11T02:01:16.957Z,83.90
2018-09-11T02:06:20.055Z,84.40
2018-09-11T02:11:23.064Z,84.50
2018-09-11T02:16:26.063Z,84.50
2018-09-11T02:21:29.079Z,84.80
2018-09-11T02:26:32.082Z,85.40
2018-09-11T02:31:35.120Z,85.50
2018-09-11T02:36:39.216Z,85.80
2018-09-11T02:41:42.250Z,86.30
2018-09-11T02:46:45.295Z,86.40
2018-09-11T02:51:48.311Z,86.50
2018-09-11T02:56:51.314Z,86.80
2018-09-11T03:01:54.345Z,87.20
2018-09-11T03:06:57.385Z,87.30
2018-09-11T03:12:00.420Z,87.80
2018-09-11T03:17:03.403Z,88.30
2018-09-11T03:22:06.415Z,88.20
2018-09-11T03:27:09.413Z,88.60
2018-09-11T03:32:12.431Z,88.80
2018-09-11T03:37:15.437Z,88.90
2018-09-11T03:42:18.456Z,89.20
2018-09-11T03:47:21.473Z,89.50
2018-09-11T03:52:24.532Z,89.40
2018-09-11T03:57:27.552Z,89.70
2018-09-11T04:02:30.548Z,89.90
2018-09-11T04:07:33.553Z,89.70
2018-09-11T04:12:36.587Z,89.70
2018-09-11T04:17:41.132Z,89.60
2018-09-11T04:22:44.168Z,89.50
2018-09-11T04:27:47.202Z,90.10
2018-09-11T04:32:50.217Z,90.00
2018-09-11T04:37:53.230Z,90.10
2018-09-11T04:42:56.288Z,90.20
2018-09-11T04:47:59.395Z,90.60
2018-09-11T04:53:02.403Z,90.80
2018-09-11T04:58:05.672Z,90.70
2018-09-11T05:03:08.670Z,90.90
2018-09-11T05:08:11.703Z,90.90
2018-09-11T05:13:14.813Z,90.80
2018-09-11T05:18:17.836Z,90.70
2018-09-11T05:23:20.845Z,90.80
2018-09-11T05:28:23.846Z,90.80
2018-09-11T05:33:26.856Z,90.50
2018-09-11T05:38:29.866Z,90.30
2018-09-11T05:43:32.889Z,90.30
2018-09-11T05:48:35.914Z,90.50
2018-09-11T05:53:38.938Z,91.00
2018-09-11T05:58:41.964Z,91.40
2018-09-11T06:03:44.971Z,90.80
2018-09-11T06:08:47.987Z,90.70
2018-09-11T06:13:51.026Z,90.40
2018-09-11T06:18:54.047Z,89.90
2018-09-11T06:23:57.078Z,90.20
2018-09-11T06:29:00.159Z,89.70
2018-09-11T06:34:03.320Z,89.40
2018-09-11T06:39:08.063Z,88.80
2018-09-11T06:44:11.083Z,88.10
2018-09-11T06:49:14.118Z,88.40
2018-09-11T06:54:17.127Z,88.10
2018-09-11T06:59:20.165Z,87.30
2018-09-11T07:04:23.195Z,87.10
2018-09-11T07:09:26.219Z,86.50
2018-09-11T07:14:29.220Z,85.80
2018-09-11T07:19:32.242Z,85.30
2018-09-11T07:24:35.259Z,84.90
2018-09-11T07:29:38.328Z,84.50
2018-09-11T07:34:41.364Z,83.40
2018-09-11T07:39:44.396Z,83.30
2018-09-11T07:44:47.450Z,83.80
2018-09-11T07:49:50.485Z,83.30
2018-09-11T07:54:53.515Z,83.20
2018-09-11T07:59:56.534Z,82.10
2018-09-11T08:04:59.569Z,81.30
2018-09-11T08:10:02.604Z,81.80
2018-09-11T08:15:06.379Z,81.00
2018-09-11T08:20:09.424Z,81.70
2018-09-11T08:25:12.539Z,78.30
2018-09-11T08:30:15.772Z,77.90
2018-09-11T08:35:18.843Z,78.10
2018-09-11T08:40:21.961Z,77.60
2018-09-11T08:45:25.044Z,77.60
2018-09-11T08:50:28.184Z,76.30
2018-09-11T08:55:31.267Z,75.10
2018-09-11T09:00:34.295Z,73.10
2018-09-11T09:05:37.343Z,72.60
2018-09-11T09:10:40.405Z,72.00
2018-09-11T09:15:43.704Z,72.10
2018-09-11T09:20:46.759Z,70.00
2018-09-11T09:25:49.751Z,69.30
2018-09-11T09:30:52.796Z,69.00
2018-09-11T09:35:55.889Z,69.00
2018-09-11T09:40:58.918Z,68.40
2018-09-11T09:46:02.019Z,67.40
2018-09-11T09:51:05.414Z,67.30
2018-09-11T09:56:08.541Z,67.90
2018-09-11T10:01:18.148Z,67.00
2018-09-11T10:06:21.299Z,66.80
2018-09-11T10:11:24.400Z,64.70
2018-09-11T10:16:27.499Z,65.00
2018-09-11T10:21:30.620Z,64.40
2018-09-11T10:26:33.647Z,62.40
2018-09-11T10:31:36.653Z,61.30
2018-09-11T10:36:39.831Z,58.70
2018-09-11T10:41:42.850Z,57.80
2018-09-11T10:46:45.872Z,56.90
2018-09-11T10:51:48.938Z,54.50
2018-09-11T10:56:51.939Z,54.00
2018-09-11T11:01:54.961Z,53.00
2018-09-11T11:06:57.956Z,50.80
2018-09-11T11:12:00.968Z,48.20
2018-09-11T11:17:04.088Z,49.60
2018-09-11T11:22:07.076Z,48.90
2018-09-11T11:27:10.231Z,48.00
2018-09-11T11:32:13.551Z,48.00
2018-09-11T11:37:16.719Z,47.60
2018-09-11T11:42:19.732Z,47.40
2018-09-11T11:47:22.700Z,46.40
2018-09-11T11:52:25.694Z,46.70
2018-09-11T11:57:28.683Z,46.10
2018-09-11T12:02:31.777Z,45.90
2018-09-11T12:07:34.836Z,45.70
2018-09-11T12:12:37.880Z,47.00
2018-09-11T12:17:40.950Z,46.80
2018-09-11T12:22:44.045Z,47.20
2018-09-11T12:27:47.056Z,47.10
2018-09-11T12:32:50.068Z,47.10
2018-09-11T12:37:53.201Z,46.10
2018-09-11T12:42:56.316Z,46.10
2018-09-11T12:47:59.700Z,45.20
2018-09-11T12:53:02.382Z,44.30
2018-09-11T12:58:05.415Z,44.70
2018-09-11T13:03:08.635Z,45.10
2018-09-11T13:08:11.647Z,44.30
2018-09-11T13:13:14.665Z,44.70
2018-09-11T13:18:17.674Z,45.40
2018-09-11T13:23:20.679Z,45.60
2018-09-11T13:28:23.791Z,45.90
2018-09-11T13:33:26.802Z,46.20
2018-09-11T13:38:29.902Z,45.80
2018-09-11T13:43:32.958Z,46.30
2018-09-11T13:48:35.963Z,46.50
2018-09-11T13:53:38.979Z,45.90
2018-09-11T13:58:41.998Z,46.50
2018-09-11T14:03:45.073Z,46.20
2018-09-11T14:08:48.092Z,45.90
2018-09-11T14:13:51.119Z,46.00
2018-09-11T14:18:54.133Z,45.80
2018-09-11T14:23:57.149Z,45.30
2018-09-11T14:29:00.234Z,44.70
2018-09-11T14:34:03.235Z,44.90
2018-09-11T14:39:07.433Z,44.70
2018-09-11T14:44:10.434Z,44.70
2018-09-11T14:49:13.456Z,45.10
2018-09-11T14:54:16.476Z,44.80
2018-09-11T14:59:19.483Z,44.90
2018-09-11T15:04:22.596Z,45.30
2018-09-11T15:09:25.620Z,45.20
2018-09-11T15:14:28.650Z,44.50
2018-09-11T15:19:31.671Z,44.90
2018-09-11T15:24:34.680Z,45.40
2018-09-11T15:29:37.701Z,46.00
2018-09-11T15:34:40.756Z,46.10
2018-09-11T15:39:43.780Z,46.40
2018-09-11T15:44:46.880Z,44.80
2018-09-11T15:49:49.889Z,44.70
2018-09-11T15:54:52.994Z,43.30
2018-09-11T15:59:56.012Z,43.10
2018-09-11T16:04:59.071Z,42.40
2018-09-11T16:10:02.083Z,40.00
2018-09-11T16:15:05.407Z,39.80
2018-09-11T16:20:08.408Z,41.20
2018-09-11T16:25:11.401Z,39.90
2018-09-11T16:30:14.513Z,39.80
2018-09-11T16:35:17.448Z,38.30
2018-09-11T16:40:20.524Z,39.30
2018-09-11T16:45:23.603Z,38.10
2018-09-11T16:50:26.720Z,40.60
2018-09-11T16:55:29.799Z,42.30
2018-09-11T17:00:32.840Z,43.40
2018-09-11T17:05:35.914Z,43.90
2018-09-11T17:10:39.669Z,44.30
2018-09-11T17:15:42.693Z,44.90
2018-09-11T17:20:45.808Z,45.10
2018-09-11T17:25:48.861Z,45.60
2018-09-11T17:30:51.923Z,45.70
2018-09-11T17:35:55.055Z,46.30
2018-09-11T17:40:58.077Z,46.80
2018-09-11T17:46:01.241Z,46.90
2018-09-11T17:51:04.289Z,47.00
2018-09-11T17:56:07.976Z,47.30
2018-09-11T18:01:11.099Z,48.00
2018-09-11T18:06:14.216Z,48.50
2018-09-11T18:11:17.319Z,49.60
2018-09-11T18:16:20.487Z,50.00
2018-09-11T18:21:23.541Z,50.60
2018-09-11T18:26:26.636Z,51.20
2018-09-11T18:31:29.646Z,52.20
2018-09-11T18:36:32.781Z,52.60
2018-09-11T18:41:35.809Z,53.10
2018-09-11T18:46:38.851Z,53.50
2018-09-11T18:51:41.918Z,53.10
2018-09-11T18:56:44.897Z,53.10
2018-09-11T19:01:47.945Z,53.30
2018-09-11T19:06:50.992Z,53.60
2018-09-11T19:11:53.984Z,53.10
2018-09-11T19:16:57.009Z,52.20
2018-09-11T19:22:00.120Z,52.20
2018-09-11T19:27:03.299Z,51.30
2018-09-11T19:32:06.248Z,51.10
2018-09-11T19:37:09.280Z,51.40
2018-09-11T19:42:12.541Z,51.00
2018-09-11T19:47:15.595Z,50.90
2018-09-11T19:52:18.698Z,51.10
2018-09-11T19:57:21.824Z,51.60
2018-09-11T20:02:24.933Z,51.60
2018-09-11T20:07:28.017Z,52.20
2018-09-11T20:12:31.133Z,52.10
2018-09-11T20:17:34.342Z,52.00
2018-09-11T20:22:38.094Z,52.00
2018-09-11T20:27:41.371Z,52.00
2018-09-11T20:32:44.768Z,52.40
2018-09-11T20:37:47.912Z,52.30
2018-09-11T20:42:50.891Z,52.60
2018-09-11T20:47:53.892Z,52.60
2018-09-11T20:52:56.997Z,53.00
2018-09-11T20:58:00.091Z,53.30
2018-09-11T21:03:03.090Z,53.40
2018-09-11T21:08:06.273Z,53.80
2018-09-11T21:13:09.308Z,53.80
2018-09-11T21:18:12.323Z,53.80
2018-09-11T21:23:15.516Z,53.70
2018-09-11T21:28:18.494Z,54.20
2018-09-11T21:33:21.742Z,54.50
2018-09-11T21:38:25.072Z,54.70
2018-09-11T21:43:28.114Z,55.30
2018-09-11T21:48:31.131Z,55.50
2018-09-11T21:53:34.116Z,55.70
2018-09-11T21:58:37.199Z,56.00
2018-09-11T22:03:40.244Z,56.20
2018-09-11T22:08:43.438Z,56.80
2018-09-11T22:13:46.859Z,57.20
2018-09-11T22:18:49.967Z,57.60
2018-09-11T22:23:53.245Z,57.90
2018-09-11T22:28:56.385Z,58.20
2018-09-11T22:33:59.494Z,58.10
2018-09-11T22:39:02.694Z,58.40
2018-09-11T22:44:05.881Z,58.80
2018-09-11T22:49:09.110Z,59.20
2018-09-11T22:54:12.213Z,59.60
2018-09-11T22:59:15.221Z,60.00
2018-09-11T23:04:18.315Z,60.40
2018-09-11T23:09:21.362Z,60.80
2018-09-11T23:14:24.523Z,61.10
2018-09-11T23:19:27.540Z,60.90
2018-09-11T23:24:30.633Z,62.10
2018-09-11T23:29:33.644Z,62.70
2018-09-11T23:34:36.748Z,63.10
2018-09-11T23:39:39.763Z,63.20
2018-09-11T23:44:42.787Z,63.40
2018-09-11T23:49:45.941Z,63.90
2018-09-11T23:54:49.060Z,64.30
2018-09-11T23:59:52.042Z,64.50
